createdAt,value
2019-03-20T00:00:07.324Z,101722.00
2019-03-20T00:02:42.012Z,101726.00
2019-03-20T00:05:15.746Z,101716.00
2019-03-20T00:07:48.509Z,101725.00
2019-03-20T00:10:21.228Z,101723.00
2019-03-20T00:12:54.186Z,101720.00
2019-03-20T00:15:29.916Z,101723.00
2019-03-20T00:18:03.327Z,101728.00
2019-03-20T00:20:36.897Z,101717.00
2019-03-20T00:23:10.018Z,101716.00
2019-03-20T00:25:42.744Z,101718.00
2019-03-20T00:28:16.860Z,101723.00
2019-03-20T00:30:49.627Z,101719.00
2019-03-20T00:33:23.517Z,101708.00
2019-03-20T00:35:56.551Z,101719.00
2019-03-20T00:38:29.257Z,101720.00
2019-03-20T00:41:02.092Z,101718.00
2019-03-20T00:43:35.155Z,101713.00
2019-03-20T00:46:08.001Z,101724.00
2019-03-20T00:48:41.006Z,101722.00
2019-03-20T00:51:13.851Z,101720.00
2019-03-20T00:53:46.837Z,101713.00
2019-03-20T00:56:19.694Z,101716.00
2019-03-20T00:58:52.671Z,101719.00
2019-03-20T01:01:25.705Z,101721.00
2019-03-20T01:03:58.529Z,101714.00
2019-03-20T01:06:31.351Z,101712.00
2019-03-20T01:09:06.366Z,101710.00
2019-03-20T01:11:39.215Z,101703.00
2019-03-20T01:14:12.129Z,101706.00
2019-03-20T01:16:44.910Z,101705.00
2019-03-20T01:19:17.773Z,101711.00
2019-03-20T01:21:50.584Z,101708.00
2019-03-20T01:24:23.456Z,101702.00
2019-03-20T01:26:56.279Z,101705.00
2019-03-20T01:29:29.470Z,101705.00
2019-03-20T01:32:02.314Z,101707.00
2019-03-20T01:34:35.173Z,101695.00
2019-03-20T01:37:07.984Z,101701.00
2019-03-20T01:39:40.865Z,101693.00
2019-03-20T01:42:13.897Z,101694.00
2019-03-20T01:44:46.723Z,101695.00
2019-03-20T01:47:19.566Z,101700.00
2019-03-20T01:49:52.377Z,101695.00
2019-03-20T01:52:25.193Z,101704.00
2019-03-20T01:54:58.073Z,101708.00
2019-03-20T01:57:30.877Z,101709.00
2019-03-20T02:00:04.619Z,101700.00
2019-03-20T02:02:37.516Z,101702.00
2019-03-20T02:05:10.669Z,101710.00
2019-03-20T02:07:43.590Z,101710.00
2019-03-20T02:10:16.441Z,101709.00
2019-03-20T02:12:49.319Z,101706.00
2019-03-20T02:15:22.172Z,101713.00
2019-03-20T02:17:55.013Z,101707.00
2019-03-20T02:20:27.846Z,101708.00
2019-03-20T02:23:00.688Z,101711.00
2019-03-20T02:25:33.678Z,101714.00
2019-03-20T02:28:06.498Z,101704.00
2019-03-20T02:30:39.548Z,101722.00
2019-03-20T02:33:12.362Z,101717.00
2019-03-20T02:35:51.464Z,101716.00
2019-03-20T02:38:19.991Z,101717.00
2019-03-20T02:40:52.869Z,101728.00
2019-03-20T02:43:25.725Z,101730.00
2019-03-20T02:45:59.053Z,101731.00
2019-03-20T02:48:31.878Z,101740.00
2019-03-20T02:51:04.735Z,101739.00
2019-03-20T02:53:37.782Z,101731.00
2019-03-20T02:56:10.608Z,101733.00
2019-03-20T02:58:44.726Z,101733.00
2019-03-20T03:01:17.539Z,101734.00
2019-03-20T03:03:50.338Z,101730.00
2019-03-20T03:06:23.201Z,101724.00
2019-03-20T03:08:56.003Z,101734.00
2019-03-20T03:11:28.834Z,101733.00
2019-03-20T03:14:01.683Z,101740.00
2019-03-20T03:16:34.506Z,101739.00
2019-03-20T03:19:07.314Z,101737.00
2019-03-20T03:21:40.155Z,101740.00
2019-03-20T03:24:13.042Z,101745.00
2019-03-20T03:26:45.860Z,101751.00
2019-03-20T03:29:19.972Z,101749.00
2019-03-20T03:31:52.778Z,101757.00
2019-03-20T03:34:25.605Z,101741.00
2019-03-20T03:36:58.411Z,101742.00
2019-03-20T03:39:31.231Z,101734.00
2019-03-20T03:42:04.298Z,101740.00
2019-03-20T03:44:37.127Z,101736.00
2019-03-20T03:47:10.025Z,101738.00
2019-03-20T03:49:43.139Z,101749.00
2019-03-20T03:52:16.016Z,101737.00
2019-03-20T03:54:49.007Z,101746.00
2019-03-20T03:57:22.067Z,101749.00
2019-03-20T03:59:56.388Z,101742.00
2019-03-20T04:02:29.220Z,101751.00
2019-03-20T04:05:02.356Z,101755.00
2019-03-20T04:07:35.371Z,101758.00
2019-03-20T04:10:10.275Z,101755.00
2019-03-20T04:12:43.170Z,101761.00
2019-03-20T04:15:17.421Z,101766.00
2019-03-20T04:17:50.382Z,101764.00
2019-03-20T04:20:23.216Z,101769.00
2019-03-20T04:22:56.075Z,101761.00
2019-03-20T04:25:28.902Z,101771.00
2019-03-20T04:28:01.714Z,101770.00
2019-03-20T04:30:34.541Z,101778.00
2019-03-20T04:33:07.405Z,101773.00
2019-03-20T04:35:40.216Z,101768.00
2019-03-20T04:38:13.082Z,101774.00
2019-03-20T04:40:45.994Z,101769.00
2019-03-20T04:43:18.824Z,101764.00
2019-03-20T04:45:51.663Z,101767.00
2019-03-20T04:48:24.475Z,101769.00
2019-03-20T04:50:57.487Z,101779.00
2019-03-20T04:53:30.483Z,101787.00
2019-03-20T04:56:03.312Z,101787.00
2019-03-20T04:58:36.164Z,101787.00
2019-03-20T05:01:09.022Z,101797.00
2019-03-20T05:03:41.912Z,101807.00
2019-03-20T05:06:14.743Z,101796.00
2019-03-20T05:08:47.758Z,101805.00
2019-03-20T05:11:20.683Z,101812.00
2019-03-20T05:13:53.550Z,101802.00
2019-03-20T05:16:26.387Z,101803.00
2019-03-20T05:18:59.189Z,101803.00
2019-03-20T05:21:32.255Z,101811.00
2019-03-20T05:24:05.090Z,101821.00
2019-03-20T05:26:37.913Z,101824.00
2019-03-20T05:29:10.741Z,101828.00
2019-03-20T05:31:43.570Z,101830.00
2019-03-20T05:34:16.386Z,101833.00
2019-03-20T05:36:49.235Z,101837.00
2019-03-20T05:39:22.113Z,101837.00
2019-03-20T05:41:56.934Z,101839.00
2019-03-20T05:44:29.727Z,101837.00
2019-03-20T05:47:02.565Z,101840.00
2019-03-20T05:49:35.382Z,101857.00
2019-03-20T05:52:08.237Z,101859.00
2019-03-20T05:54:41.445Z,101855.00
2019-03-20T05:57:14.390Z,101865.00
2019-03-20T05:59:47.351Z,101880.00
2019-03-20T06:02:20.312Z,101881.00
2019-03-20T06:04:53.336Z,101881.00
2019-03-20T06:07:26.331Z,101879.00
2019-03-20T06:09:59.290Z,101893.00
2019-03-20T06:12:32.179Z,101888.00
2019-03-20T06:15:05.660Z,101895.00
2019-03-20T06:17:38.590Z,101900.00
2019-03-20T06:20:11.632Z,101907.00
2019-03-20T06:22:44.546Z,101904.00
2019-03-20T06:25:20.977Z,101906.00
2019-03-20T06:27:53.119Z,101913.00
2019-03-20T06:30:26.377Z,101911.00
2019-03-20T06:32:59.945Z,101922.00
2019-03-20T06:35:33.190Z,101922.00
2019-03-20T06:38:06.068Z,101927.00
2019-03-20T06:40:39.060Z,101930.00
2019-03-20T06:43:13.335Z,101926.00
2019-03-20T06:45:46.388Z,101928.00
2019-03-20T06:48:19.303Z,101938.00
2019-03-20T06:50:52.235Z,101936.00
2019-03-20T06:53:26.179Z,101941.00
2019-03-20T06:55:59.065Z,101940.00
2019-03-20T06:58:31.993Z,101955.00
2019-03-20T07:01:23.789Z,101953.00
2019-03-20T07:04:31.291Z,101960.00
2019-03-20T07:07:43.514Z,101958.00
2019-03-20T07:10:52.482Z,101971.00
2019-03-20T07:13:25.515Z,101955.00
2019-03-20T07:15:58.386Z,101971.00
2019-03-20T07:18:31.356Z,101968.00
2019-03-20T07:21:04.709Z,101983.00
2019-03-20T07:23:37.742Z,101968.00
2019-03-20T07:26:10.794Z,101967.00
2019-03-20T07:28:43.948Z,101985.00
2019-03-20T07:31:16.963Z,101977.00
2019-03-20T07:33:50.259Z,101978.00
2019-03-20T07:36:23.518Z,101987.00
2019-03-20T07:38:56.446Z,101993.00
2019-03-20T07:41:29.506Z,101985.00
2019-03-20T07:44:02.455Z,101971.00
2019-03-20T07:46:35.641Z,101984.00
2019-03-20T07:49:08.513Z,101985.00
2019-03-20T07:51:41.419Z,101985.00
2019-03-20T07:54:14.302Z,101994.00
2019-03-20T07:56:48.307Z,101991.00
2019-03-20T07:59:21.205Z,101992.00
2019-03-20T08:01:54.145Z,101997.00
2019-03-20T08:04:27.048Z,102003.00
2019-03-20T08:07:00.062Z,101994.00
2019-03-20T08:09:33.110Z,102001.00
2019-03-20T08:12:06.105Z,102008.00
2019-03-20T08:14:39.111Z,102011.00
2019-03-20T08:17:12.089Z,102008.00
2019-03-20T08:19:45.109Z,102013.00
2019-03-20T08:22:18.221Z,102015.00
2019-03-20T08:24:51.292Z,102030.00
2019-03-20T08:27:24.266Z,102024.00
2019-03-20T08:29:57.250Z,102027.00
2019-03-20T08:32:30.190Z,102037.00
2019-03-20T08:35:04.336Z,102038.00
2019-03-20T08:37:37.429Z,102048.00
2019-03-20T08:40:11.148Z,102048.00
2019-03-20T08:42:44.312Z,102035.00
2019-03-20T08:45:17.494Z,102038.00
2019-03-20T08:47:50.366Z,102043.00
2019-03-20T08:50:23.382Z,102047.00
2019-03-20T08:52:56.307Z,102048.00
2019-03-20T08:55:29.345Z,102050.00
2019-03-20T08:58:02.233Z,102047.00
2019-03-20T09:00:35.186Z,102049.00
2019-03-20T09:03:08.392Z,102051.00
2019-03-20T09:05:41.435Z,102050.00
2019-03-20T09:08:14.451Z,102043.00
2019-03-20T09:10:47.477Z,102050.00
2019-03-20T09:13:20.583Z,102045.00
2019-03-20T09:15:53.618Z,102039.00
2019-03-20T09:18:26.516Z,102044.00
2019-03-20T09:20:59.450Z,102047.00
2019-03-20T09:23:32.446Z,102053.00
2019-03-20T09:26:05.294Z,102061.00
2019-03-20T09:28:38.393Z,102058.00
2019-03-20T09:31:11.352Z,102057.00
2019-03-20T09:33:44.421Z,102060.00
2019-03-20T09:36:17.369Z,102057.00
2019-03-20T09:38:50.387Z,102054.00
2019-03-20T09:41:23.297Z,102056.00
2019-03-20T09:43:56.197Z,102053.00
2019-03-20T09:46:29.108Z,102050.00
2019-03-20T09:49:02.059Z,102058.00
2019-03-20T09:51:36.390Z,102057.00
2019-03-20T09:54:09.346Z,102045.00
2019-03-20T09:56:42.417Z,102052.00
2019-03-20T09:59:15.352Z,102055.00
2019-03-20T10:01:48.286Z,102055.00
2019-03-20T10:04:21.318Z,102061.00
2019-03-20T10:06:54.261Z,102064.00
2019-03-20T10:09:27.219Z,102054.00
2019-03-20T10:12:00.155Z,102053.00
2019-03-20T10:14:33.169Z,102062.00
2019-03-20T10:17:06.231Z,102069.00
2019-03-20T10:19:39.177Z,102058.00
2019-03-20T10:22:12.103Z,102066.00
2019-03-20T10:24:45.084Z,102065.00
2019-03-20T10:27:18.083Z,102063.00
2019-03-20T10:29:51.044Z,102068.00
2019-03-20T10:32:23.973Z,102078.00
2019-03-20T10:34:57.047Z,102075.00
2019-03-20T10:37:29.939Z,102058.00
2019-03-20T10:40:04.035Z,102060.00
2019-03-20T10:42:37.053Z,102061.00
2019-03-20T10:45:11.978Z,102070.00
2019-03-20T10:47:45.215Z,102066.00
2019-03-20T10:50:21.195Z,102060.00
2019-03-20T10:52:53.613Z,102056.00
2019-03-20T10:55:26.714Z,102055.00
2019-03-20T10:57:59.882Z,102058.00
2019-03-20T11:00:32.931Z,102058.00
2019-03-20T11:03:06.065Z,102054.00
2019-03-20T11:05:39.036Z,102049.00
2019-03-20T11:08:13.066Z,102047.00
2019-03-20T11:10:46.296Z,102048.00
2019-03-20T11:13:19.199Z,102019.00
2019-03-20T11:15:52.131Z,102047.00
2019-03-20T11:18:24.998Z,102056.00
2019-03-20T11:20:57.900Z,102051.00
2019-03-20T11:23:30.883Z,102046.00
2019-03-20T11:26:04.001Z,102044.00
2019-03-20T11:28:36.861Z,102043.00
2019-03-20T11:31:09.796Z,102041.00
2019-03-20T11:33:42.870Z,102038.00
2019-03-20T11:36:16.037Z,102034.00
2019-03-20T11:38:48.964Z,102032.00
2019-03-20T11:41:21.955Z,102038.00
2019-03-20T11:43:55.007Z,102035.00
2019-03-20T11:46:28.161Z,102027.00
2019-03-20T11:49:01.866Z,102034.00
2019-03-20T11:51:34.827Z,102038.00
2019-03-20T11:54:07.735Z,102033.00
2019-03-20T11:56:40.978Z,102028.00
2019-03-20T11:59:13.997Z,102038.00
2019-03-20T12:01:47.155Z,102019.00
2019-03-20T12:04:20.149Z,102024.00
2019-03-20T12:06:53.133Z,102022.00
2019-03-20T12:09:26.301Z,102009.00
2019-03-20T12:11:59.365Z,102009.00
2019-03-20T12:14:32.357Z,102014.00
2019-03-20T12:17:05.237Z,102007.00
2019-03-20T12:19:44.910Z,102000.00
2019-03-20T12:22:13.188Z,102006.00
2019-03-20T12:24:46.182Z,101996.00
2019-03-20T12:27:19.233Z,102000.00
2019-03-20T12:29:52.272Z,102001.00
2019-03-20T12:32:25.177Z,102012.00
2019-03-20T12:34:58.130Z,102004.00
2019-03-20T12:37:31.171Z,102007.00
2019-03-20T12:40:08.187Z,102006.00
2019-03-20T12:42:41.243Z,101986.00
2019-03-20T12:45:15.800Z,101995.00
2019-03-20T12:47:48.869Z,101999.00
2019-03-20T12:50:21.836Z,101987.00
2019-03-20T12:52:54.915Z,101978.00
2019-03-20T12:55:31.073Z,101987.00
2019-03-20T12:58:04.019Z,101989.00
2019-03-20T13:00:38.229Z,101981.00
2019-03-20T13:05:44.379Z,101968.00
2019-03-20T13:08:17.428Z,101977.00
2019-03-20T13:10:50.496Z,101973.00
2019-03-20T13:13:23.551Z,101970.00
2019-03-20T13:15:56.511Z,101970.00
2019-03-20T13:18:29.709Z,101968.00
2019-03-20T13:21:02.695Z,101965.00
2019-03-20T13:23:35.869Z,101962.00
2019-03-20T13:26:08.933Z,101961.00
2019-03-20T13:28:41.976Z,101959.00
2019-03-20T13:31:18.277Z,101971.00
2019-03-20T13:33:51.286Z,101973.00
2019-03-20T13:36:24.266Z,101965.00
2019-03-20T13:38:57.263Z,101971.00
2019-03-20T13:41:30.353Z,101934.00
2019-03-20T13:44:03.536Z,101960.00
2019-03-20T13:46:36.460Z,101960.00
2019-03-20T13:49:09.448Z,101956.00
2019-03-20T13:51:42.381Z,101951.00
2019-03-20T13:54:15.346Z,101949.00
2019-03-20T13:56:48.262Z,101949.00
2019-03-20T13:59:21.252Z,101944.00
2019-03-20T14:01:54.202Z,101945.00
2019-03-20T14:04:27.217Z,101942.00
2019-03-20T14:07:00.372Z,101944.00
2019-03-20T14:09:33.453Z,101949.00
2019-03-20T14:12:06.562Z,101951.00
2019-03-20T14:14:39.706Z,101952.00
2019-03-20T14:17:12.658Z,101946.00
2019-03-20T14:19:45.785Z,101941.00
2019-03-20T14:22:18.869Z,101936.00
2019-03-20T14:24:51.820Z,101941.00
2019-03-20T14:27:24.874Z,101944.00
2019-03-20T14:29:57.835Z,101939.00
2019-03-20T14:32:30.990Z,101940.00
2019-03-20T14:35:04.597Z,101939.00
2019-03-20T14:37:37.532Z,101943.00
2019-03-20T14:40:11.283Z,101943.00
2019-03-20T14:42:44.405Z,101937.00
2019-03-20T14:45:17.457Z,101936.00
2019-03-20T14:47:50.408Z,101935.00
2019-03-20T14:50:24.232Z,101940.00
2019-03-20T14:52:57.250Z,101930.00
2019-03-20T14:55:30.335Z,101936.00
2019-03-20T14:58:03.472Z,101941.00
2019-03-20T15:00:36.541Z,101930.00
2019-03-20T15:03:09.644Z,101946.00
2019-03-20T15:05:42.560Z,101942.00
2019-03-20T15:08:15.617Z,101951.00
2019-03-20T15:10:48.605Z,101946.00
2019-03-20T15:13:21.601Z,101952.00
2019-03-20T15:16:02.795Z,101958.00
2019-03-20T15:18:35.732Z,101962.00
2019-03-20T15:21:08.799Z,101962.00
2019-03-20T15:23:41.805Z,101950.00
2019-03-20T15:26:14.753Z,101942.00
2019-03-20T15:28:47.635Z,101941.00
2019-03-20T15:31:23.398Z,101942.00
2019-03-20T15:33:56.312Z,101938.00
2019-03-20T15:36:29.301Z,101940.00
2019-03-20T15:39:02.762Z,101934.00
2019-03-20T15:41:37.644Z,101924.00
2019-03-20T15:44:10.720Z,101931.00
2019-03-20T15:46:43.716Z,101925.00
2019-03-20T15:49:17.787Z,101921.00
2019-03-20T15:51:50.873Z,101929.00
2019-03-20T15:54:24.006Z,101933.00
2019-03-20T15:56:56.997Z,101935.00
2019-03-20T15:59:31.153Z,101927.00
2019-03-20T16:02:04.177Z,101923.00
2019-03-20T16:04:38.227Z,101923.00
2019-03-20T16:07:11.268Z,101925.00
2019-03-20T16:09:44.270Z,101925.00
2019-03-20T16:12:17.246Z,101922.00
2019-03-20T16:14:50.476Z,101930.00
2019-03-20T16:17:23.585Z,101923.00
2019-03-20T16:19:56.633Z,101922.00
2019-03-20T16:22:29.685Z,101915.00
2019-03-20T16:25:03.085Z,101914.00
2019-03-20T16:27:36.035Z,101906.00
2019-03-20T16:30:15.837Z,101917.00
2019-03-20T16:32:49.353Z,101908.00
2019-03-20T16:35:22.311Z,101915.00
2019-03-20T16:37:55.421Z,101910.00
2019-03-20T16:40:28.621Z,101906.00
2019-03-20T16:43:01.614Z,101912.00
2019-03-20T16:45:34.809Z,101913.00
2019-03-20T16:48:09.042Z,101906.00
2019-03-20T16:50:42.085Z,101896.00
2019-03-20T16:53:15.140Z,101894.00
2019-03-20T16:55:48.041Z,101900.00
2019-03-20T16:58:21.022Z,101903.00
2019-03-20T17:00:55.133Z,101901.00
2019-03-20T17:03:30.181Z,101903.00
2019-03-20T17:06:03.411Z,101896.00
2019-03-20T17:08:36.390Z,101902.00
2019-03-20T17:11:09.441Z,101890.00
2019-03-20T17:13:42.532Z,101897.00
2019-03-20T17:16:15.635Z,101896.00
2019-03-20T17:18:48.754Z,101905.00
2019-03-20T17:21:21.749Z,101904.00
2019-03-20T17:23:54.781Z,101908.00
2019-03-20T17:26:27.775Z,101907.00
2019-03-20T17:29:08.595Z,101905.00
2019-03-20T17:31:35.981Z,101904.00
2019-03-20T17:34:09.232Z,101913.00
2019-03-20T17:36:42.368Z,101910.00
2019-03-20T17:39:15.496Z,101916.00
2019-03-20T17:41:48.480Z,101917.00
2019-03-20T17:44:21.570Z,101906.00
2019-03-20T17:46:54.488Z,101904.00
2019-03-20T17:49:27.648Z,101904.00
2019-03-20T17:52:00.675Z,101901.00
2019-03-20T17:54:33.628Z,101906.00
2019-03-20T17:57:06.733Z,101909.00
2019-03-20T17:59:39.700Z,101910.00
2019-03-20T18:02:12.992Z,101904.00
2019-03-20T18:04:45.833Z,101903.00
2019-03-20T18:07:18.897Z,101904.00
2019-03-20T18:09:52.454Z,101917.00
2019-03-20T18:12:25.496Z,101906.00
2019-03-20T18:14:58.521Z,101911.00
2019-03-20T18:17:31.564Z,101923.00
2019-03-20T18:20:06.064Z,101920.00
2019-03-20T18:22:39.428Z,101913.00
2019-03-20T18:25:12.644Z,101913.00
2019-03-20T18:27:46.740Z,101927.00
2019-03-20T18:30:21.054Z,101914.00
2019-03-20T18:32:54.132Z,101905.00
2019-03-20T18:35:27.324Z,101914.00
2019-03-20T18:38:01.066Z,101919.00
2019-03-20T18:40:34.167Z,101922.00
2019-03-20T18:43:07.283Z,101925.00
2019-03-20T18:45:40.306Z,101921.00
2019-03-20T18:48:13.329Z,101912.00
2019-03-20T18:50:46.360Z,101919.00
2019-03-20T18:53:19.478Z,101925.00
2019-03-20T18:55:52.418Z,101936.00
2019-03-20T18:58:25.515Z,101938.00
2019-03-20T19:00:58.493Z,101944.00
2019-03-20T19:03:31.765Z,101943.00
2019-03-20T19:06:09.386Z,101940.00
2019-03-20T19:08:42.620Z,101940.00
2019-03-20T19:11:15.752Z,101937.00
2019-03-20T19:13:48.764Z,101940.00
2019-03-20T19:16:21.979Z,101937.00
2019-03-20T19:18:55.022Z,101933.00
2019-03-20T19:21:28.159Z,101933.00
2019-03-20T19:24:01.408Z,101926.00
2019-03-20T19:26:34.659Z,101932.00
2019-03-20T19:29:07.950Z,101940.00
2019-03-20T19:31:41.047Z,101943.00
2019-03-20T19:34:15.214Z,101944.00
2019-03-20T19:36:48.337Z,101951.00
2019-03-20T19:39:21.463Z,101947.00
2019-03-20T19:41:54.521Z,101944.00
2019-03-20T19:44:27.642Z,101948.00
2019-03-20T19:47:00.790Z,101952.00
2019-03-20T19:49:34.064Z,101945.00
2019-03-20T19:52:07.214Z,101952.00
2019-03-20T19:54:40.401Z,101938.00
2019-03-20T19:57:13.474Z,101952.00
2019-03-20T19:59:46.617Z,101943.00
2019-03-20T20:02:19.747Z,101953.00
2019-03-20T20:04:52.761Z,101957.00
2019-03-20T20:07:25.842Z,101963.00
2019-03-20T20:09:58.829Z,101960.00
2019-03-20T20:12:31.941Z,101959.00
2019-03-20T20:15:08.834Z,101950.00
2019-03-20T20:17:41.784Z,101963.00
2019-03-20T20:20:16.765Z,101964.00
2019-03-20T20:22:49.863Z,101957.00
2019-03-20T20:25:22.842Z,101962.00
2019-03-20T20:27:55.862Z,101967.00
2019-03-20T20:30:28.833Z,101955.00
2019-03-20T20:33:01.788Z,101962.00
2019-03-20T20:35:35.905Z,101953.00
2019-03-20T20:38:08.862Z,101961.00
2019-03-20T20:40:42.076Z,101962.00
2019-03-20T20:43:15.059Z,101952.00
2019-03-20T20:45:48.131Z,101959.00
2019-03-20T20:48:21.514Z,101964.00
2019-03-20T20:50:54.792Z,101964.00
2019-03-20T20:53:28.026Z,101962.00
2019-03-20T20:56:01.191Z,101973.00
2019-03-20T20:58:34.253Z,101973.00
2019-03-20T21:01:07.554Z,101970.00
2019-03-20T21:03:40.563Z,101971.00
2019-03-20T21:06:13.756Z,101968.00
2019-03-20T21:08:46.830Z,101962.00
2019-03-20T21:11:19.885Z,101969.00
2019-03-20T21:13:52.959Z,101962.00
2019-03-20T21:16:26.763Z,101972.00
2019-03-20T21:19:38.312Z,101970.00
2019-03-20T21:23:30.682Z,101968.00
2019-03-20T21:26:04.619Z,101966.00
2019-03-20T21:29:46.999Z,101977.00
2019-03-20T21:32:33.396Z,101978.00
2019-03-20T21:36:32.238Z,101965.00
2019-03-20T21:39:06.975Z,101966.00
2019-03-20T21:42:44.272Z,101967.00
2019-03-20T21:45:47.152Z,101967.00
2019-03-20T21:48:20.969Z,101965.00
2019-03-20T21:51:14.470Z,101965.00
2019-03-20T21:54:38.627Z,101973.00
2019-03-20T21:58:07.714Z,101974.00
2019-03-20T22:01:36.512Z,101970.00
2019-03-20T22:04:10.283Z,101967.00
2019-03-20T22:07:12.359Z,101976.00
2019-03-20T22:10:41.414Z,101976.00
2019-03-20T22:13:50.559Z,101969.00
2019-03-20T22:17:22.740Z,101972.00
2019-03-20T22:20:33.712Z,101974.00
2019-03-20T22:23:51.201Z,101974.00
2019-03-20T22:27:32.727Z,101976.00
2019-03-20T22:30:07.412Z,101965.00
2019-03-20T22:33:36.534Z,101975.00
2019-03-20T22:36:27.644Z,101972.00
2019-03-20T22:40:06.449Z,101968.00
2019-03-20T22:42:52.511Z,101969.00
2019-03-20T22:46:24.759Z,101966.00
2019-03-20T22:49:32.446Z,101966.00
2019-03-20T22:53:18.730Z,101973.00
2019-03-20T22:57:04.335Z,101974.00
2019-03-20T22:59:38.164Z,101973.00
2019-03-20T23:02:38.982Z,101976.00
2019-03-20T23:05:12.708Z,101971.00
2019-03-20T23:07:46.512Z,101972.00
2019-03-20T23:10:20.361Z,101971.00
2019-03-20T23:12:54.302Z,101971.00
2019-03-20T23:15:28.147Z,101959.00
2019-03-20T23:18:02.125Z,101962.00
2019-03-20T23:20:36.046Z,101952.00
2019-03-20T23:23:11.915Z,101956.00
2019-03-20T23:25:45.705Z,101958.00
2019-03-20T23:28:19.642Z,101958.00
2019-03-20T23:30:53.523Z,101956.00
2019-03-20T23:33:27.309Z,101966.00
2019-03-20T23:36:01.285Z,101961.00
2019-03-20T23:38:35.248Z,101954.00
2019-03-20T23:41:09.131Z,101950.00
2019-03-20T23:43:52.414Z,101953.00
2019-03-20T23:46:18.743Z,101958.00
2019-03-20T23:49:15.239Z,101957.00
2019-03-20T23:51:49.089Z,101950.00
2019-03-20T23:54:28.700Z,101958.00
2019-03-20T23:57:02.636Z,101959.00
2019-03-20T23:59:36.442Z,101949.00
